Map

Track Data

SID SEASON NUMBER BASIN SUBBASIN NAME ISO_TIME NATURE LAT LON WMO_WIND WMO_PRES WMO_AGENCY TRACK_TYPE DIST2LAND LANDFALL IFLAG USA_AGENCY USA_ATCF_ID USA_LAT USA_LON USA_RECORD USA_STATUS USA_WIND USA_PRES USA_SSHS USA_R34_NE USA_R34_SE USA_R34_SW USA_R34_NW USA_R50_NE USA_R50_SE USA_R50_SW USA_R50_NW USA_R64_NE USA_R64_SE USA_R64_SW USA_R64_NW USA_POCI USA_ROCI USA_RMW USA_EYE TOKYO_LAT TOKYO_LON TOKYO_GRADE TOKYO_WIND TOKYO_PRES TOKYO_R50_DIR TOKYO_R50_LONG TOKYO_R50_SHORT TOKYO_R30_DIR TOKYO_R30_LONG TOKYO_R30_SHORT TOKYO_LAND CMA_LAT CMA_LON CMA_CAT CMA_WIND CMA_PRES HKO_LAT HKO_LON HKO_CAT HKO_WIND HKO_PRES NEWDELHI_LAT NEWDELHI_LON NEWDELHI_GRADE NEWDELHI_WIND NEWDELHI_PRES NEWDELHI_CI NEWDELHI_DP NEWDELHI_POCI REUNION_LAT REUNION_LON REUNION_TYPE REUNION_WIND REUNION_PRES REUNION_TNUM REUNION_CI REUNION_RMW REUNION_R34_NE REUNION_R34_SE REUNION_R34_SW REUNION_R34_NW REUNION_R50_NE REUNION_R50_SE REUNION_R50_SW REUNION_R50_NW REUNION_R64_NE REUNION_R64_SE REUNION_R64_SW REUNION_R64_NW BOM_LAT BOM_LON BOM_TYPE BOM_WIND BOM_PRES BOM_TNUM BOM_CI BOM_RMW BOM_R34_NE BOM_R34_SE BOM_R34_SW BOM_R34_NW BOM_R50_NE BOM_R50_SE BOM_R50_SW BOM_R50_NW BOM_R64_NE BOM_R64_SE BOM_R64_SW BOM_R64_NW BOM_ROCI BOM_POCI BOM_EYE BOM_POS_METHOD BOM_PRES_METHOD NADI_LAT NADI_LON NADI_CAT NADI_WIND NADI_PRES WELLINGTON_LAT WELLINGTON_LON WELLINGTON_WIND WELLINGTON_PRES DS824_LAT DS824_LON DS824_STAGE DS824_WIND DS824_PRES TD9636_LAT TD9636_LON TD9636_STAGE TD9636_WIND TD9636_PRES TD9635_LAT TD9635_LON TD9635_WIND TD9635_PRES TD9635_ROCI NEUMANN_LAT NEUMANN_LON NEUMANN_CLASS NEUMANN_WIND NEUMANN_PRES MLC_LAT MLC_LON MLC_CLASS MLC_WIND MLC_PRES USA_GUST BOM_GUST BOM_GUST_PER REUNION_GUST REUNION_GUST_PER USA_SEAHGT USA_SEARAD_NE USA_SEARAD_SE USA_SEARAD_SW USA_SEARAD_NW STORM_SPEED STORM_DIR
1943289N15081 1943 74 NI BB NOT_NAMED 1943-10-16 00:00:00 TS 14.7000 80.7000 main 54 44 _________O____ -1 14.7000 80.7000 TC 45 4 312
1943289N15081 1943 74 NI BB NOT_NAMED 1943-10-16 03:00:00 TS 14.8384 80.5400 main 39 31 _________PO___ -1 14.9075 80.4601 TC 41 14.7000 80.7000 3 5 309
1943289N15081 1943 74 NI BB NOT_NAMED 1943-10-16 06:00:00 TS 15.0239 80.2891 main 31 0 _________OP___ -1 15.1000 80.2000 TC 37 14.9098 80.4228 3 6 305
1943289N15081 1943 74 NI BB NOT_NAMED 1943-10-16 09:00:00 TS 15.1967 80.0098 main 0 0 _________PP___ -1 15.2650 79.9075 TC 33 15.1056 80.1462 3 6 300
1943289N15081 1943 74 NI BB NOT_NAMED 1943-10-16 12:00:00 TS 15.3368 79.7357 main 0 0 _________OP___ -1 15.4000 79.6000 TC 30 15.2735 79.8715 3 6 296
1943289N15081 1943 74 NI BB NOT_NAMED 1943-10-16 15:00:00 TS 15.4537 79.4537 main 0 0 _________PO___ -1 15.5074 79.3074 TC 30 15.4000 79.6000 1 6 290
1943289N15081 1943 74 NI BB NOT_NAMED 1943-10-16 18:00:00 TS 15.5402 79.1645 main 0 0 _________OP___ -1 15.6000 79.0000 TC 30 15.4804 79.3289 1 6 285
1943289N15081 1943 74 NI BB NOT_NAMED 1943-10-16 21:00:00 TS 15.6082 78.8665 main 0 0 _________PP___ -1 15.6698 78.6947 TC 30 15.5466 79.0383 1 7 286
1943289N15081 1943 74 NI BB NOT_NAMED 1943-10-17 00:00:00 TS 15.7198 78.5018 main 0 0 _________OP___ -1 15.8000 78.3000 TC 30 15.6396 78.7036 1 9 291
1943289N15081 1943 74 NI BB NOT_NAMED 1943-10-17 03:00:00 TS 15.9276 78.0150 main 0 0 _________PO___ -1 16.0552 77.7301 TC 30 15.8000 78.3000 1 12 296
1943289N15081 1943 74 NI AS NOT_NAMED 1943-10-17 06:00:00 TS 16.2276 77.4086 main 0 0 _________OP___ -1 16.4000 77.1000 TC 30 16.0553 77.7171 1 14 299
1943289N15081 1943 74 NI AS NOT_NAMED 1943-10-17 09:00:00 TS 16.5799 76.7874 main 0 0 _________PP___ -1 16.7776 76.4976 TC 30 16.3822 77.0772 1 14 304
1943289N15081 1943 74 NI AS NOT_NAMED 1943-10-17 12:00:00 TS 16.9839 76.2367 main 0 0 _________OP___ -1 17.2000 76.0000 TC 30 16.7678 76.4735 1 12 312
1943289N15081 1943 74 NI AS NOT_NAMED 1943-10-17 15:00:00 TS 17.4137 75.8263 main 0 0 _________PO___ -1 17.6273 75.6525 TC 30 17.2000 76.0000 1 11 325
1943289N15081 1943 74 NI AS NOT_NAMED 1943-10-17 18:00:00 TS 17.8715 75.5844 main 0 0 _________OP___ -1 18.1000 75.5000 TC 30 17.6431 75.6688 1 10 341
1943289N15081 1943 74 NI AS NOT_NAMED 1943-10-17 21:00:00 TS 18.3749 75.4865 main 0 0 _________PP___ -1 18.6197 75.4804 TC 30 18.1301 75.4925 1 11 0
1943289N15081 1943 74 NI AS NOT_NAMED 1943-10-18 00:00:00 TS 18.9261 75.5974 main 0 0 _________OP___ -1 19.2000 75.7000 TC 30 18.6522 75.4948 1 12 20
1943289N15081 1943 74 NI AS NOT_NAMED 1943-10-18 03:00:00 TS 19.5288 75.9298 main 0 0 _________PO___ -1 19.8575 76.1596 TC 30 19.2000 75.7000 1 15 33
1943289N15081 1943 74 NI AS NOT_NAMED 1943-10-18 06:00:00 TS 20.1430 76.4405 main 0 0 _________OP___ -1 20.5000 76.8000 TC 30 19.7860 76.0811 1 16 42
1943289N15081 1943 74 NI AS NOT_NAMED 1943-10-18 09:00:00 TS 20.7085 77.0591 main 0 0 _________PP___ -1 21.0297 77.4556 TC 30 20.3874 76.6625 1 17 49
1943289N15081 1943 74 NI AS NOT_NAMED 1943-10-18 12:00:00 TS 21.2350 77.7940 main 0 0 _________OP___ -1 21.5000 78.2000 TC 30 20.9700 77.3879 1 18 54
1943289N15081 1943 74 NI BB NOT_NAMED 1943-10-18 15:00:00 TS 21.7399 78.6100 main 0 0 _________PO___ -1 21.9798 79.0201 TC 30 21.5000 78.2000 1 18 59
1943289N15081 1943 74 NI BB NOT_NAMED 1943-10-18 18:00:00 TS 22.1446 79.4135 main 0 0 _________OP___ -1 22.4000 79.9000 TC 30 21.9531 79.0486 1 17 64
1943289N15081 1943 74 NI BB NOT_NAMED 1943-10-18 21:00:00 TS 22.4958 80.2701 main 0 0 _________PP___ -1 22.7284 80.7971 TC 30 22.3408 79.9189 1 17 68
1943289N15081 1943 74 NI BB NOT_NAMED 1943-10-19 00:00:00 TS 22.7887 81.1031 main 0 0 _________OP___ -1 23.0000 81.7000 TC 30 22.6831 80.8046 1 14 69
1943289N15081 1943 74 NI BB NOT_NAMED 1943-10-19 03:00:00 NR 23.0000 81.7000 main 0 __________O___ -1 TC 23.0000 81.7000 1 12 69

About IBTrACS Database

This database is a web-friendly format of International Best Track Archive for Climate Stewardship (IBTrACS), a global best track data archive curated by NOAA dating back to 1842.

Updated: 2021-10-08